Aeroporto :
LOGIN :

Iscrizione | Disclaimer

   EN    FR    IT 

 










Sommario :    VFR   VFR Marginale   IFR   IFR Intensivo   IFR Molto Intensivo
Visibilità : 
Base nubi : 
>= 8 km
>= 3000ft
5 / 8 km
1000 / 3000 ft
1500m / 5 km
500 / 1000 ft
800 / 1500m
200 / 500 ft
< 800m
< 200 ft
Simboli :   Temporali  Nebbia  Neve Forte  Precipitazioni Forti  Vento > 20 kt
SIGMETs :   Varie  Temporali  Ghiacco  Turbolenza  Onda orograficha  Ceneri Vulcaniche






- Altitudine del aeroporto : 1512 ft
- Codice IATA : GHA


DAUG - Noumerate - Ghardaia

ULTIMO METAR :
  • 100300Z 03008KT 9999 BKN046 SCT100 18/04 Q1019

METARs OBSOLETI :
  • 100200Z 01004KT 9999 BKN046 SCT100 18/04 Q1019
  • 100100Z 04003KT 9999 BKN046 18/05 Q1019

TAF TAF DAUG
Valido dal 10 a 00 ore il 11 a 00 ore UTC


092300Z 1000/1024 08008KT 9999 BKN046
PROB40
TEMPO 1000/1005 FEW030TCU
BECMG 1012/1015 16010KT
PROB30
TEMPO 1014/1016 FEW030TCU



MetMap, La meteo Aeronautica in un colpo d'occhio ! - Copyright ORBIFLY Dicembre 2007 - Disclaimer

ORBIFLY MET'MAP TEAM :

Programmazione e sviluppo : Alexandra Zaïnal
Concezione : Baudouin d'Aumeries
Aiuto per la programmazione : Marc-Olivier Méhu
Supporto tecnico e logistico : Manuel Goepfert
Aiuto per la traduzione : Arnaldo La Scala

Contatto : metmap@orbifly.com




FONTI E CREDITI :

   NOAA